Time;durP1;ratioP1;P1;durP2;ratioP2;P2;SDS_P1;SDS_P2;PMS_P1;PMS_P2;Temp;Humidity;BMP_temperature;BMP_pressure;BME280_temperature;BME280_humidity;BME280_pressure;Samples;Min_cycle;Max_cycle;Signal;HPM_P1;HPM_P2
2022/05/10 00:00:53;;;;;;;10.27;4.63;;;14.00;99.90;;;;;;5018296;28;20127;-75
2022/05/10 00:03:21;;;;;;;17.27;4.47;;;13.90;99.90;;;;;;5026453;28;20175;-75
2022/05/10 00:05:47;;;;;;;15.25;4.40;;;13.90;99.90;;;;;;5042856;28;20050;-75
2022/05/10 00:08:17;;;;;;;11.30;4.38;;;13.90;99.90;;;;;;5022766;28;20053;-75
2022/05/10 00:10:44;;;;;;;10.90;4.22;;;13.80;99.90;;;;;;5024094;28;20489;-75
2022/05/10 00:13:10;;;;;;;11.27;4.03;;;13.80;99.90;;;;;;5023180;28;20044;-75
2022/05/10 00:15:36;;;;;;;12.07;4.40;;;13.80;99.90;;;;;;5024554;28;20076;-75
2022/05/10 00:18:02;;;;;;;14.32;4.80;;;13.80;99.90;;;;;;5022051;28;20088;-75
2022/05/10 00:20:30;;;;;;;9.55;4.22;;;13.80;99.90;;;;;;5023147;28;20076;-75
2022/05/10 00:22:56;;;;;;;13.70;5.07;;;13.70;99.90;;;;;;5048250;28;20052;-75
2022/05/10 00:25:28;;;;;;;11.15;4.00;;;13.70;99.90;;;;;;5023067;28;20071;-75
2022/05/10 00:27:54;;;;;;;10.57;3.67;;;13.70;99.90;;;;;;5026031;28;20408;-75
2022/05/10 00:30:21;;;;;;;14.32;4.43;;;13.60;99.90;;;;;;5019574;28;20049;-75
2022/05/10 00:32:47;;;;;;;10.43;4.63;;;13.60;99.90;;;;;;5030795;28;20222;-75
2022/05/10 00:35:17;;;;;;;8.70;3.88;;;13.60;99.90;;;;;;5015594;28;20046;-75
2022/05/10 00:37:48;;;;;;;11.05;4.53;;;13.60;99.90;;;;;;5041159;28;20492;-74
2022/05/10 00:40:17;;;;;;;10.15;4.32;;;13.60;99.90;;;;;;5027107;28;20116;-75
2022/05/10 00:42:51;;;;;;;14.77;4.40;;;13.60;99.90;;;;;;5019695;28;20888;-75
2022/05/10 00:45:23;;;;;;;12.65;4.28;;;13.60;99.90;;;;;;5025841;28;20400;-74
2022/05/10 00:48:05;;;;;;;10.02;4.07;;;13.60;99.90;;;;;;5027408;28;20046;-75
2022/05/10 00:50:45;;;;;;;9.20;4.22;;;13.60;99.90;;;;;;5024787;28;22099;-74
2022/05/10 00:53:40;;;;;;;13.45;4.32;;;13.60;99.90;;;;;;5024495;28;20499;-75
2022/05/10 00:56:07;;;;;;;;;;;13.60;99.90;;;;;;5023945;28;20132;-74
2022/05/10 00:58:43;;;;;;;10.30;3.80;;;13.60;99.90;;;;;;5024978;28;19929;-74
2022/05/10 01:01:11;;;;;;;11.20;4.55;;;13.50;99.90;;;;;;5022427;28;21035;-75
2022/05/10 01:03:41;;;;;;;10.13;4.25;;;13.50;99.90;;;;;;5026352;28;20139;-74
2022/05/10 01:06:13;;;;;;;11.00;4.43;;;13.40;99.90;;;;;;5026446;28;20051;-75
2022/05/10 01:08:45;;;;;;;11.45;4.60;;;13.40;99.90;;;;;;5027319;28;20092;-75
2022/05/10 01:11:16;;;;;;;11.02;4.70;;;13.40;99.90;;;;;;5024234;28;20423;-74
2022/05/10 01:13:45;;;;;;;12.98;5.00;;;13.40;99.90;;;;;;5025989;28;20092;-75
2022/05/10 01:16:18;;;;;;;12.27;4.45;;;13.40;99.90;;;;;;5020679;28;20070;-74
2022/05/10 01:18:44;;;;;;;9.32;3.78;;;13.40;99.90;;;;;;5025238;28;20045;-74
2022/05/10 01:21:40;;;;;;;9.80;4.05;;;13.30;99.90;;;;;;5026397;28;20045;-74
2022/05/10 01:24:41;;;;;;;8.02;3.92;;;13.30;99.90;;;;;;5017169;28;20045;-75
2022/05/10 01:27:18;;;;;;;10.32;3.72;;;13.30;99.90;;;;;;5018230;28;20054;-75
2022/05/10 01:30:07;;;;;;;8.98;4.07;;;13.30;99.90;;;;;;5016234;28;20037;-75
2022/05/10 01:35:40;;;;;;;11.25;4.70;;;13.30;99.90;;;;;;5027234;28;20143;-75
2022/05/10 01:38:23;;;;;;;9.88;4.00;;;13.20;99.90;;;;;;5023901;28;20473;-75
2022/05/10 01:40:52;;;;;;;12.18;4.40;;;13.20;99.90;;;;;;5026939;28;20053;-75
2022/05/10 01:43:43;;;;;;;10.75;4.03;;;13.20;99.90;;;;;;5026314;28;20394;-74
2022/05/10 01:46:19;;;;;;;9.50;4.10;;;13.20;99.90;;;;;;5023593;28;20111;-75
2022/05/10 01:48:50;;;;;;;10.13;4.43;;;13.10;99.90;;;;;;5025477;28;20054;-74
2022/05/10 01:51:26;;;;;;;9.63;4.25;;;13.10;99.90;;;;;;5022845;28;20037;-75
2022/05/10 01:53:55;;;;;;;12.13;4.80;;;13.00;99.90;;;;;;5023945;28;20100;-75
2022/05/10 01:56:24;;;;;;;11.40;4.22;;;13.00;99.90;;;;;;5025659;28;20130;-74
2022/05/10 01:58:50;;;;;;;9.95;3.70;;;13.00;99.90;;;;;;5026810;28;20408;-74
2022/05/10 02:01:24;;;;;;;13.13;5.03;;;13.00;99.90;;;;;;5026956;28;20072;-74
2022/05/10 02:04:05;;;;;;;14.85;4.43;;;12.90;99.90;;;;;;5023004;28;20061;-74
2022/05/10 02:06:55;;;;;;;9.82;4.70;;;12.90;99.90;;;;;;5020840;28;20623;-74
2022/05/10 02:09:43;;;;;;;9.07;4.07;;;12.90;99.90;;;;;;5026687;28;20045;-74
2022/05/10 02:12:19;;;;;;;11.05;4.95;;;12.90;99.90;;;;;;5022633;28;20061;-74
2022/05/10 02:15:31;;;;;;;13.63;5.22;;;12.90;99.90;;;;;;5026641;28;20096;-74
2022/05/10 02:18:05;;;;;;;8.80;4.85;;;12.90;99.90;;;;;;5016865;28;20065;-74
2022/05/10 02:20:41;;;;;;;11.73;5.23;;;12.90;99.90;;;;;;5026513;28;20408;-74
2022/05/10 02:23:19;;;;;;;12.43;4.65;;;13.00;99.90;;;;;;5021522;28;20057;-75
2022/05/10 02:25:54;;;;;;;10.15;4.88;;;13.00;99.90;;;;;;5028296;28;20053;-74
2022/05/10 02:28:25;;;;;;;;;;;13.00;99.90;;;;;;5027547;28;20523;-74
2022/05/10 02:30:54;;;;;;;12.93;4.65;;;13.00;99.90;;;;;;5028621;28;19928;-74
2022/05/10 02:33:21;;;;;;;12.55;6.13;;;13.00;99.90;;;;;;5029161;28;20050;-74
2022/05/10 02:35:57;;;;;;;10.02;4.57;;;13.00;99.90;;;;;;5027514;28;20049;-74
2022/05/10 02:38:29;;;;;;;12.73;5.10;;;13.10;99.90;;;;;;5025538;28;20037;-74
2022/05/10 02:40:57;;;;;;;11.80;5.50;;;13.10;99.90;;;;;;5023302;28;20041;-74
2022/05/10 02:43:46;;;;;;;10.23;5.13;;;13.10;99.90;;;;;;5020561;28;20045;-74
2022/05/10 02:46:12;;;;;;;11.43;5.78;;;13.10;99.90;;;;;;5022044;28;20080;-74
2022/05/10 02:48:38;;;;;;;11.27;5.18;;;13.10;99.90;;;;;;5024336;28;20069;-74
2022/05/10 02:51:05;;;;;;;9.40;5.18;;;13.10;99.90;;;;;;5020708;28;20542;-74
2022/05/10 02:53:31;;;;;;;10.98;5.70;;;13.10;99.90;;;;;;5025438;28;20045;-74
2022/05/10 02:56:02;;;;;;;12.60;5.90;;;13.10;99.90;;;;;;5026971;28;20091;-74
2022/05/10 02:58:49;;;;;;;9.98;6.07;;;13.10;99.90;;;;;;5026966;28;20480;-74
2022/05/10 03:01:52;;;;;;;11.93;5.70;;;13.00;99.90;;;;;;5026178;28;20054;-74
2022/05/10 03:04:17;;;;;;;11.40;5.68;;;13.10;99.90;;;;;;5024114;28;20068;-74
2022/05/10 03:06:44;;;;;;;11.90;6.13;;;13.10;99.90;;;;;;5056279;28;20508;-74
2022/05/10 03:09:10;;;;;;;12.63;6.28;;;13.00;99.90;;;;;;5028969;28;20048;-74
2022/05/10 03:11:37;;;;;;;15.20;7.07;;;13.10;99.90;;;;;;5025462;28;20049;-74
2022/05/10 03:14:04;;;;;;;11.13;5.70;;;13.10;99.90;;;;;;5023300;28;20047;-74
2022/05/10 03:16:30;;;;;;;13.48;6.55;;;13.10;99.90;;;;;;5058229;28;20053;-74
2022/05/10 03:18:56;;;;;;;17.33;7.38;;;13.10;99.90;;;;;;5020926;28;20041;-74
2022/05/10 03:21:22;;;;;;;14.30;7.28;;;13.10;99.90;;;;;;5025998;28;20046;-74
2022/05/10 03:23:48;;;;;;;11.30;5.85;;;13.30;99.90;;;;;;5018988;28;20042;-75
2022/05/10 03:26:16;;;;;;;16.80;7.07;;;13.10;99.90;;;;;;5028618;28;20067;-74
2022/05/10 03:28:42;;;;;;;12.82;6.32;;;13.10;99.90;;;;;;5021742;28;20049;-74
2022/05/10 03:31:15;;;;;;;9.35;6.03;;;13.10;99.90;;;;;;5019345;28;20052;-75
2022/05/10 03:33:41;;;;;;;12.35;5.93;;;13.10;99.90;;;;;;5014047;28;20041;-74
2022/05/10 03:36:06;;;;;;;12.68;6.70;;;13.10;99.90;;;;;;5026975;28;20064;-74
2022/05/10 03:38:32;;;;;;;12.30;7.07;;;13.10;99.90;;;;;;5024741;28;20081;-74
2022/05/10 03:40:58;;;;;;;10.18;6.07;;;13.10;99.90;;;;;;5025641;28;20238;-74
2022/05/10 03:43:27;;;;;;;13.82;6.95;;;13.10;99.90;;;;;;5025147;28;20686;-73
2022/05/10 03:45:53;;;;;;;10.82;7.05;;;13.00;99.90;;;;;;5020117;28;20504;-74
2022/05/10 03:48:19;;;;;;;11.82;6.60;;;13.10;99.90;;;;;;5020176;28;20046;-74
2022/05/10 03:50:44;;;;;;;13.68;6.60;;;13.00;99.90;;;;;;5023368;28;20045;-74
2022/05/10 03:53:10;;;;;;;14.38;7.53;;;13.00;99.90;;;;;;5019000;28;20050;-74
2022/05/10 03:55:35;;;;;;;14.93;7.78;;;13.00;99.90;;;;;;5023752;28;20099;-74
2022/05/10 03:58:06;;;;;;;14.02;7.18;;;13.00;99.90;;;;;;5025386;28;20048;-74
2022/05/10 04:00:32;;;;;;;12.13;7.35;;;13.00;99.90;;;;;;5022980;28;20044;-74
2022/05/10 04:02:58;;;;;;;13.80;7.38;;;13.00;99.90;;;;;;5022685;28;20069;-74
2022/05/10 04:05:28;;;;;;;16.10;7.28;;;13.00;99.90;;;;;;5026504;28;20048;-74
2022/05/10 04:07:54;;;;;;;17.23;7.15;;;13.00;99.90;;;;;;5026648;28;20050;-75
2022/05/10 04:10:22;;;;;;;14.70;7.95;;;13.00;99.90;;;;;;5026799;28;20056;-74
2022/05/10 04:12:48;;;;;;;15.15;7.28;;;13.00;99.90;;;;;;5027122;28;20111;-74
2022/05/10 04:15:16;;;;;;;15.20;7.68;;;13.00;99.90;;;;;;5025236;28;20365;-74
2022/05/10 04:17:45;;;;;;;12.50;7.75;;;13.00;99.90;;;;;;5026633;28;20045;-74
2022/05/10 04:20:13;;;;;;;17.77;8.57;;;13.00;99.90;;;;;;5023781;28;20087;-74
2022/05/10 04:22:39;;;;;;;16.27;7.93;;;13.00;99.90;;;;;;5024724;28;20049;-74
2022/05/10 04:25:05;;;;;;;13.20;7.68;;;13.10;99.90;;;;;;5020889;28;20498;-74
2022/05/10 04:27:31;;;;;;;15.65;8.05;;;13.00;99.90;;;;;;5025457;28;20057;-74
2022/05/10 04:29:56;;;;;;;14.80;8.13;;;13.10;99.90;;;;;;5027104;28;20065;-74
2022/05/10 04:32:22;;;;;;;15.32;9.00;;;13.10;99.90;;;;;;5030785;28;20037;-74
2022/05/10 04:34:48;;;;;;;16.33;7.35;;;13.10;99.90;;;;;;5023686;28;20045;-75
2022/05/10 04:37:13;;;;;;;14.10;7.95;;;13.10;99.90;;;;;;5028146;28;20049;-74
2022/05/10 04:42:23;;;;;;;13.33;8.53;;;13.10;99.90;;;;;;5018448;28;20053;-74
2022/05/10 04:44:48;;;;;;;17.38;9.75;;;13.20;99.90;;;;;;5024980;28;20663;-75
2022/05/10 04:47:14;;;;;;;20.17;9.18;;;13.20;99.90;;;;;;5024827;28;20054;-74
2022/05/10 04:49:40;;;;;;;18.95;9.77;;;13.20;99.90;;;;;;5020542;28;20053;-74
2022/05/10 04:52:06;;;;;;;17.52;8.98;;;13.20;99.90;;;;;;5027263;28;20184;-73
2022/05/10 04:54:31;;;;;;;16.42;9.93;;;13.30;99.90;;;;;;5023601;28;20044;-74
2022/05/10 04:56:57;;;;;;;15.05;8.55;;;13.30;99.90;;;;;;5025959;28;20045;-75
2022/05/10 04:59:22;;;;;;;14.25;8.38;;;13.30;99.90;;;;;;5025096;28;20107;-74
2022/05/10 05:01:48;;;;;;;16.65;9.52;;;13.30;99.90;;;;;;5026996;28;20134;-74
2022/05/10 05:04:14;;;;;;;17.85;9.77;;;13.40;99.90;;;;;;5028049;28;20045;-73
2022/05/10 05:06:40;;;;;;;17.10;9.27;;;13.40;99.90;;;;;;5021530;28;20056;-77
2022/05/10 05:09:07;;;;;;;17.23;9.30;;;13.50;99.90;;;;;;5028417;28;20053;-77
2022/05/10 05:11:33;;;;;;;18.42;9.05;;;13.50;99.90;;;;;;5029170;28;20117;-77
2022/05/10 05:13:59;;;;;;;18.17;9.73;;;13.50;99.90;;;;;;5030865;28;20065;-77
2022/05/10 05:16:24;;;;;;;18.13;10.00;;;13.50;99.90;;;;;;5027262;28;20112;-77
2022/05/10 05:18:50;;;;;;;17.52;9.13;;;13.60;99.90;;;;;;5029151;28;20075;-79
2022/05/10 05:21:16;;;;;;;18.50;9.73;;;13.60;99.90;;;;;;5030132;28;20049;-77
2022/05/10 05:23:42;;;;;;;15.95;9.38;;;13.70;99.90;;;;;;5021537;28;20427;-77
2022/05/10 05:26:11;;;;;;;17.85;10.35;;;13.70;99.90;;;;;;5022059;28;20478;-74
2022/05/10 05:28:36;;;;;;;21.02;10.30;;;13.70;99.90;;;;;;5027937;28;20607;-75
2022/05/10 05:31:03;;;;;;;19.92;10.15;;;13.80;99.90;;;;;;5029608;28;20045;-74
2022/05/10 05:33:28;;;;;;;14.70;9.95;;;13.80;99.90;;;;;;5027098;28;20821;-74
2022/05/10 05:35:54;;;;;;;15.45;9.75;;;13.80;99.90;;;;;;5028349;28;20049;-74
2022/05/10 05:38:20;;;;;;;20.90;10.57;;;13.90;99.90;;;;;;5056293;28;20054;-74
2022/05/10 05:40:46;;;;;;;17.35;10.63;;;13.90;99.90;;;;;;5039697;28;20059;-75
2022/05/10 05:43:19;;;;;;;16.77;9.30;;;14.00;99.90;;;;;;5030240;28;20081;-74
2022/05/10 05:45:45;;;;;;;15.03;10.00;;;14.00;99.90;;;;;;5026065;28;20049;-74
2022/05/10 05:48:11;;;;;;;17.42;9.93;;;14.10;99.90;;;;;;5030344;28;20385;-74
2022/05/10 05:50:37;;;;;;;17.15;9.60;;;14.10;99.90;;;;;;5024462;28;20515;-73
2022/05/10 05:53:05;;;;;;;14.60;9.85;;;14.20;99.90;;;;;;5028334;28;20050;-73
2022/05/10 05:55:31;;;;;;;19.10;9.18;;;14.20;99.90;;;;;;5023707;28;20045;-74
2022/05/10 05:57:59;;;;;;;18.40;9.98;;;14.30;99.90;;;;;;5025455;28;20399;-75
2022/05/10 06:00:26;;;;;;;18.00;9.85;;;14.40;99.90;;;;;;5057180;28;20042;-72
2022/05/10 06:02:52;;;;;;;13.82;9.13;;;14.40;99.90;;;;;;5026744;28;20489;-75
2022/05/10 06:05:20;;;;;;;14.50;9.57;;;14.50;99.90;;;;;;5026765;28;20043;-75
2022/05/10 06:07:46;;;;;;;16.33;9.85;;;14.60;99.90;;;;;;5041356;28;20046;-73
2022/05/10 06:10:12;;;;;;;19.92;10.07;;;14.60;99.90;;;;;;5029466;28;20052;-75
2022/05/10 06:12:37;;;;;;;16.80;10.00;;;14.70;99.90;;;;;;5054493;28;20056;-73
2022/05/10 06:15:08;;;;;;;19.80;10.15;;;14.70;99.90;;;;;;5023703;28;21544;-74
2022/05/10 06:17:35;;;;;;;13.70;9.23;;;14.80;99.90;;;;;;5027071;28;20507;-74
2022/05/10 06:20:04;;;;;;;15.55;9.32;;;14.90;99.90;;;;;;5023036;28;20508;-71
2022/05/10 06:22:29;;;;;;;20.02;9.27;;;15.00;99.90;;;;;;5030226;28;20041;-72
2022/05/10 06:24:58;;;;;;;17.23;10.02;;;15.00;99.90;;;;;;5017992;28;20381;-76
2022/05/10 06:27:24;;;;;;;17.08;9.65;;;15.10;99.90;;;;;;5027607;28;20438;-76
2022/05/10 06:29:49;;;;;;;15.23;9.88;;;15.20;99.90;;;;;;5021764;28;20042;-75
2022/05/10 06:32:24;;;;;;;18.45;9.82;;;15.30;99.90;;;;;;5025121;28;20042;-76
2022/05/10 06:34:50;;;;;;;18.35;10.13;;;15.40;99.90;;;;;;5025979;28;20405;-76
2022/05/10 06:40:13;;;;;;;14.05;8.98;;;15.60;99.90;;;;;;5025192;28;20128;-75
2022/05/10 06:42:38;;;;;;;16.00;8.98;;;15.70;99.90;;;;;;5023806;28;20041;-75
2022/05/10 06:45:10;;;;;;;16.38;9.68;;;15.90;99.90;;;;;;5023442;28;20428;-75
2022/05/10 06:47:37;;;;;;;17.27;9.45;;;16.00;99.90;;;;;;5027360;28;20053;-75
2022/05/10 06:50:05;;;;;;;16.23;8.43;;;16.20;99.90;;;;;;5029858;28;20061;-75
2022/05/10 06:52:30;;;;;;;15.43;7.95;;;16.30;99.90;;;;;;5021744;28;20542;-75
2022/05/10 06:54:57;;;;;;;13.80;7.72;;;16.40;99.90;;;;;;5025263;28;20425;-75
2022/05/10 06:57:22;;;;;;;11.27;8.05;;;16.50;99.90;;;;;;5013247;28;20977;-75
2022/05/10 06:59:48;;;;;;;15.15;7.35;;;16.70;99.90;;;;;;5028986;28;20417;-75
2022/05/10 07:02:13;;;;;;;13.57;7.57;;;16.80;99.90;;;;;;5023762;28;20069;-74
2022/05/10 07:04:39;;;;;;;15.32;7.03;;;17.00;99.90;;;;;;5025592;28;20053;-73
2022/05/10 07:07:04;;;;;;;13.10;7.65;;;17.10;99.90;;;;;;5020247;28;20045;-73
2022/05/10 07:09:30;;;;;;;12.05;7.50;;;17.30;99.90;;;;;;5020807;28;20092;-73
2022/05/10 07:11:56;;;;;;;11.48;7.03;;;17.40;99.90;;;;;;5019597;28;20119;-73
2022/05/10 07:14:21;;;;;;;13.13;6.35;;;17.50;99.90;;;;;;5019892;28;20085;-74
2022/05/10 07:16:47;;;;;;;11.88;6.00;;;17.70;99.90;;;;;;5022491;28;20049;-73
2022/05/10 07:19:12;;;;;;;12.18;7.07;;;17.90;99.90;;;;;;5026164;28;20046;-73
2022/05/10 07:21:38;;;;;;;12.63;6.40;;;18.10;99.90;;;;;;5026283;28;20044;-73
2022/05/10 07:24:04;;;;;;;11.27;6.60;;;18.30;99.90;;;;;;5020203;28;20457;-73
2022/05/10 07:26:32;;;;;;;17.15;6.25;;;18.50;99.90;;;;;;5057743;28;20061;-73
2022/05/10 07:28:58;;;;;;;11.57;6.10;;;18.60;99.90;;;;;;5022133;28;20045;-73
2022/05/10 07:31:23;;;;;;;10.82;6.07;;;18.80;99.90;;;;;;5024142;28;20139;-73
2022/05/10 07:33:49;;;;;;;14.20;6.07;;;19.10;99.90;;;;;;5025307;28;20053;-73
2022/05/10 07:36:24;;;;;;;10.60;5.90;;;19.30;99.90;;;;;;5027068;28;20048;-73
2022/05/10 07:38:50;;;;;;;12.52;5.88;;;19.40;99.90;;;;;;5024059;28;20060;-73
2022/05/10 07:41:18;;;;;;;11.30;5.28;;;19.50;99.50;;;;;;5024348;28;20481;-73
2022/05/10 07:43:44;;;;;;;11.90;5.18;;;19.60;99.00;;;;;;5054020;28;20049;-73
2022/05/10 07:46:10;;;;;;;10.63;5.75;;;19.80;98.90;;;;;;5027257;28;20049;-77
2022/05/10 07:48:36;;;;;;;12.23;5.63;;;19.90;98.80;;;;;;5025765;28;20049;-71
2022/05/10 07:51:02;;;;;;;12.88;5.05;;;20.00;98.30;;;;;;5023643;28;20089;-72
2022/05/10 07:53:32;;;;;;;8.27;4.68;;;20.10;98.30;;;;;;5023989;28;20059;-71
2022/05/10 07:55:59;;;;;;;16.63;4.97;;;20.20;97.70;;;;;;5025087;28;20128;-72
2022/05/10 07:58:25;;;;;;;14.25;4.65;;;20.30;97.40;;;;;;5024721;28;20550;-72
2022/05/10 08:00:51;;;;;;;11.98;4.80;;;20.40;96.70;;;;;;5054065;28;20087;-72
2022/05/10 08:03:19;;;;;;;11.32;4.50;;;20.50;96.80;;;;;;5023670;28;20048;-72
2022/05/10 08:05:45;;;;;;;10.10;4.30;;;20.60;96.40;;;;;;5021320;28;20057;-72
2022/05/10 08:08:12;;;;;;;11.90;4.50;;;20.70;96.40;;;;;;5035831;28;20049;-72
2022/05/10 08:10:42;;;;;;;13.20;5.22;;;20.70;96.50;;;;;;5025002;28;20050;-72
2022/05/10 08:13:12;;;;;;;11.35;4.30;;;20.80;95.50;;;;;;5023369;28;20052;-72
2022/05/10 08:15:38;;;;;;;11.57;4.85;;;20.90;95.90;;;;;;5023831;28;20052;-72
2022/05/10 08:18:05;;;;;;;12.85;4.45;;;21.00;95.40;;;;;;5020824;28;20045;-71
2022/05/10 08:20:31;;;;;;;12.25;4.20;;;21.10;95.20;;;;;;5017265;28;20120;-72
2022/05/10 08:22:56;;;;;;;10.13;4.40;;;21.30;95.50;;;;;;5021382;28;20610;-72
2022/05/10 08:25:22;;;;;;;9.13;4.22;;;21.50;95.40;;;;;;5017117;28;20042;-72
2022/05/10 08:27:47;;;;;;;14.88;5.22;;;21.60;94.90;;;;;;5021956;28;20049;-72
2022/05/10 08:30:13;;;;;;;12.13;4.63;;;21.70;94.40;;;;;;5023674;28;20044;-72
2022/05/10 08:32:39;;;;;;;11.15;5.28;;;21.80;94.20;;;;;;5021060;28;20094;-72
2022/05/10 08:35:07;;;;;;;13.32;4.85;;;21.80;94.00;;;;;;5020281;28;20782;-72
2022/05/10 08:37:32;;;;;;;9.10;4.40;;;21.80;94.10;;;;;;5021296;28;20049;-72
2022/05/10 08:39:59;;;;;;;13.82;4.93;;;21.80;94.00;;;;;;5024438;28;20417;-72
2022/05/10 08:42:28;;;;;;;20.40;4.78;;;21.80;93.60;;;;;;5025383;28;20172;-72
2022/05/10 08:45:07;;;;;;;14.18;4.35;;;21.80;93.40;;;;;;5029052;28;20060;-72
2022/05/10 08:47:35;;;;;;;12.93;3.58;;;21.80;93.50;;;;;;5025265;28;20057;-72
2022/05/10 08:50:05;;;;;;;11.40;4.63;;;21.80;93.70;;;;;;5045749;28;20476;-71
2022/05/10 08:52:34;;;;;;;8.98;3.58;;;21.80;93.40;;;;;;5029800;28;20037;-71
2022/05/10 08:55:00;;;;;;;10.15;4.10;;;21.90;93.50;;;;;;5028476;28;20045;-71
2022/05/10 08:58:04;;;;;;;12.02;3.95;;;21.90;93.60;;;;;;5065194;28;20076;-71
2022/05/10 09:00:38;;;;;;;9.63;4.47;;;22.00;92.70;;;;;;5057628;28;20502;-71
2022/05/10 09:03:42;;;;;;;9.65;4.15;;;22.00;93.10;;;;;;5032993;28;20037;-70
2022/05/10 09:06:40;;;;;;;8.90;4.03;;;22.00;92.80;;;;;;4970767;28;20464;-71
2022/05/10 09:09:24;;;;;;;13.73;4.90;;;22.00;93.00;;;;;;5025974;28;20057;-75
2022/05/10 09:11:54;;;;;;;10.68;4.90;;;22.00;92.40;;;;;;5051969;28;20385;-71
2022/05/10 09:14:28;;;;;;;10.65;4.20;;;22.00;92.90;;;;;;5027214;28;20529;-71
2022/05/10 09:16:55;;;;;;;6.18;3.80;;;22.00;92.80;;;;;;5030404;28;20365;-71
2022/05/10 09:19:40;;;;;;;8.55;3.55;;;22.00;92.80;;;;;;5028787;28;20099;-71
2022/05/10 09:22:17;;;;;;;9.15;3.78;;;22.00;92.30;;;;;;5043367;28;20045;-70
2022/05/10 09:24:53;;;;;;;12.07;4.45;;;22.00;92.40;;;;;;5020987;28;20049;-70
2022/05/10 09:27:20;;;;;;;8.57;4.03;;;21.90;92.30;;;;;;5028199;28;20061;-70
2022/05/10 09:29:49;;;;;;;8.57;4.10;;;21.90;92.50;;;;;;5017615;28;20045;-70
2022/05/10 09:35:17;;;;;;;7.70;4.05;;;21.80;92.70;;;;;;5023866;28;20046;-71
2022/05/10 09:37:50;;;;;;;14.70;4.78;;;21.90;92.80;;;;;;5027560;28;20048;-71
2022/05/10 09:40:22;;;;;;;11.68;4.93;;;22.00;92.70;;;;;;5028160;28;20066;-70
2022/05/10 09:42:50;;;;;;;12.77;5.43;;;22.00;92.70;;;;;;5026290;28;20060;-70
2022/05/10 09:45:20;;;;;;;10.05;5.10;;;22.20;92.40;;;;;;5027534;28;20053;-71
2022/05/10 09:48:06;;;;;;;9.20;5.20;;;22.20;92.40;;;;;;5027414;28;20084;-70
2022/05/10 09:50:41;;;;;;;11.18;5.30;;;22.30;92.40;;;;;;5028245;28;20051;-70
2022/05/10 09:53:15;;;;;;;12.45;5.10;;;22.40;92.50;;;;;;5030290;28;20400;-70
2022/05/10 09:55:52;;;;;;;20.38;5.20;;;22.40;92.60;;;;;;5030026;28;20160;-70
2022/05/10 09:58:22;;;;;;;15.00;6.15;;;22.50;92.40;;;;;;5022914;28;20090;-70
2022/05/10 10:00:52;;;;;;;8.88;5.45;;;22.60;92.50;;;;;;5028217;28;20049;-70
2022/05/10 10:03:28;;;;;;;10.25;5.38;;;22.70;92.50;;;;;;5032148;28;20079;-70
2022/05/10 10:05:56;;;;;;;15.38;6.03;;;22.80;92.40;;;;;;5027048;28;20544;-71
2022/05/10 10:08:42;;;;;;;13.13;6.13;;;22.90;92.20;;;;;;5016658;28;20053;-70
2022/05/10 10:11:20;;;;;;;9.20;5.72;;;22.90;92.20;;;;;;5028094;28;20385;-70
2022/05/10 10:14:01;;;;;;;17.02;5.65;;;22.90;91.30;;;;;;5017647;28;20045;-71
2022/05/10 10:16:31;;;;;;;8.32;4.53;;;22.90;91.50;;;;;;5060538;28;20057;-71
2022/05/10 10:19:26;;;;;;;11.80;5.13;;;22.90;91.70;;;;;;5025589;28;20091;-71
2022/05/10 10:22:12;;;;;;;14.43;5.93;;;22.80;91.70;;;;;;5026342;28;20049;-71
2022/05/10 10:25:02;;;;;;;13.15;6.03;;;22.90;91.70;;;;;;5022545;28;20069;-71
2022/05/10 10:27:50;;;;;;;11.35;5.22;;;22.80;91.80;;;;;;5024120;28;20488;-71
2022/05/10 10:30:31;;;;;;;18.13;4.90;;;22.80;91.80;;;;;;5016269;28;20061;-71
2022/05/10 10:33:16;;;;;;;14.90;5.47;;;22.90;91.90;;;;;;5030361;28;20041;-71
2022/05/10 10:35:46;;;;;;;;;;;23.00;91.50;;;;;;5019677;28;20041;-71
2022/05/10 10:38:28;;;;;;;18.05;5.10;;;23.10;91.60;;;;;;5025027;28;20546;-71
2022/05/10 10:41:10;;;;;;;12.95;4.80;;;23.30;91.40;;;;;;5024714;28;20049;-71
2022/05/10 10:44:07;;;;;;;11.55;4.90;;;23.60;90.70;;;;;;5024695;28;20054;-71
2022/05/10 10:46:58;;;;;;;10.48;4.70;;;23.70;90.90;;;;;;5023852;28;20049;-71
2022/05/10 10:49:34;;;;;;;11.98;4.95;;;24.00;90.40;;;;;;5013617;28;20050;-71
2022/05/10 10:52:00;;;;;;;17.02;4.75;;;24.10;90.10;;;;;;5029770;28;20052;-71
2022/05/10 10:54:29;;;;;;;19.98;5.28;;;24.20;90.00;;;;;;5025390;28;20041;-70
2022/05/10 10:57:14;;;;;;;13.20;4.57;;;24.20;89.30;;;;;;5025643;28;20049;-71
2022/05/10 10:59:51;;;;;;;10.82;4.65;;;24.40;89.50;;;;;;5024541;28;20045;-70
2022/05/10 11:02:43;;;;;;;12.73;4.30;;;24.30;89.40;;;;;;5024729;28;20397;-71
2022/05/10 11:05:31;;;;;;;11.25;5.35;;;24.20;88.60;;;;;;5021828;28;20127;-70
2022/05/10 11:08:30;;;;;;;13.07;5.57;;;24.10;88.80;;;;;;5024061;28;20228;-71
2022/05/10 11:11:11;;;;;;;11.55;5.68;;;24.00;89.20;;;;;;5026662;28;20088;-71
2022/05/10 11:14:13;;;;;;;15.95;6.03;;;23.80;89.50;;;;;;5022603;28;20392;-71
2022/05/10 11:16:55;;;;;;;14.90;5.85;;;23.60;88.90;;;;;;5026332;28;20053;-70
2022/05/10 11:19:23;;;;;;;11.82;5.88;;;23.50;89.90;;;;;;5021945;28;20053;-71
2022/05/10 11:22:20;;;;;;;9.13;4.90;;;23.40;89.80;;;;;;5028247;28;20047;-71
2022/05/10 11:25:22;;;;;;;21.55;6.70;;;23.30;90.20;;;;;;5018163;28;20048;-71
2022/05/10 11:28:09;;;;;;;12.82;6.40;;;23.20;90.30;;;;;;5022993;28;20064;-71
2022/05/10 11:30:45;;;;;;;11.98;6.60;;;23.20;90.50;;;;;;5025988;28;20076;-71
2022/05/10 11:33:26;;;;;;;11.82;6.00;;;23.20;90.40;;;;;;5025228;28;20606;-71
2022/05/10 11:36:02;;;;;;;17.63;6.43;;;23.20;90.50;;;;;;5026828;28;20400;-71
2022/05/10 11:38:49;;;;;;;13.13;6.35;;;23.20;90.50;;;;;;5024510;28;20048;-73
2022/05/10 11:41:36;;;;;;;12.95;5.63;;;23.30;90.50;;;;;;5026769;28;20050;-72
2022/05/10 11:44:23;;;;;;;22.67;5.43;;;23.50;90.80;;;;;;5025468;28;20102;-74
2022/05/10 11:46:54;;;;;;;15.07;6.50;;;23.60;90.50;;;;;;5024084;28;20084;-74
2022/05/10 11:49:46;;;;;;;23.70;6.75;;;23.70;90.40;;;;;;5026692;28;20081;-72
2022/05/10 11:52:27;;;;;;;14.73;6.30;;;23.70;90.10;;;;;;5020237;28;20050;-70
2022/05/10 11:55:14;;;;;;;16.67;6.13;;;23.70;90.30;;;;;;5028438;28;20440;-71
2022/05/10 11:57:42;;;;;;;10.23;6.38;;;23.70;90.30;;;;;;5024773;28;20045;-70
2022/05/10 12:00:30;;;;;;;10.88;5.78;;;23.70;90.30;;;;;;5020258;28;20111;-70
2022/05/10 12:03:11;;;;;;;12.85;5.18;;;23.80;90.40;;;;;;5028458;28;20049;-70
2022/05/10 12:05:41;;;;;;;12.27;4.78;;;23.90;90.50;;;;;;5027134;28;20077;-70
2022/05/10 12:08:16;;;;;;;13.30;4.25;;;23.90;90.30;;;;;;5014606;28;20428;-70
2022/05/10 12:10:44;;;;;;;14.60;4.53;;;24.00;90.10;;;;;;5014445;28;20034;-71
2022/05/10 12:22:17;;;;;;;13.23;5.03;;;24.50;86.90;;;;;;5026063;28;20053;-71
2022/05/10 12:24:50;;;;;;;7.80;3.40;;;24.50;86.40;;;;;;5020625;28;20365;-70
2022/05/10 12:27:16;;;;;;;10.23;3.97;;;24.40;87.10;;;;;;5026822;28;20062;-70
2022/05/10 12:29:41;;;;;;;10.38;3.70;;;24.40;86.40;;;;;;5024688;28;20065;-70
2022/05/10 12:32:34;;;;;;;12.85;4.43;;;24.30;86.30;;;;;;5027362;28;20112;-71
2022/05/10 12:35:04;;;;;;;12.20;4.25;;;24.30;86.60;;;;;;5021801;28;20057;-71
2022/05/10 12:37:30;;;;;;;14.40;4.07;;;24.30;87.30;;;;;;5022343;28;20056;-71
2022/05/10 12:40:00;;;;;;;10.95;4.15;;;24.40;87.40;;;;;;5024816;28;20068;-70
2022/05/10 12:42:36;;;;;;;10.65;4.40;;;24.50;88.00;;;;;;5026218;28;20381;-71
2022/05/10 12:45:35;;;;;;;12.48;4.63;;;24.50;87.20;;;;;;5023401;28;20400;-71
2022/05/10 12:48:19;;;;;;;15.75;5.45;;;24.50;88.20;;;;;;5018940;28;20087;-71
2022/05/10 12:51:03;;;;;;;15.38;5.43;;;24.40;87.70;;;;;;5021466;28;20057;-71
2022/05/10 12:53:47;;;;;;;18.23;5.30;;;24.20;88.20;;;;;;5019990;28;20061;-71
2022/05/10 12:56:22;;;;;;;15.25;5.18;;;24.20;87.90;;;;;;5023674;28;20304;-73
2022/05/10 12:58:53;;;;;;;13.52;5.18;;;24.10;88.30;;;;;;5022431;28;20528;-73
2022/05/10 13:01:22;;;;;;;14.00;4.93;;;24.10;88.60;;;;;;5023915;28;20140;-73
2022/05/10 13:04:02;;;;;;;18.77;5.63;;;24.00;88.60;;;;;;5023033;28;20187;-74
2022/05/10 13:06:55;;;;;;;14.10;5.38;;;23.90;87.20;;;;;;5020603;28;20092;-73
2022/05/10 13:09:43;;;;;;;11.88;4.07;;;23.80;88.10;;;;;;5017407;28;20050;-71
2022/05/10 13:12:13;;;;;;;10.70;4.28;;;23.70;88.90;;;;;;5019269;28;20068;-72
2022/05/10 13:14:43;;;;;;;16.50;4.90;;;23.50;88.20;;;;;;5020348;28;20045;-72
2022/05/10 13:17:46;;;;;;;12.13;4.35;;;23.60;88.20;;;;;;5025849;28;20053;-71
2022/05/10 13:20:14;;;;;;;12.43;4.93;;;23.50;88.30;;;;;;5004541;28;20045;-72
2022/05/10 13:23:04;;;;;;;11.38;4.47;;;23.50;88.60;;;;;;5014306;28;20508;-71
2022/05/10 13:25:46;;;;;;;17.15;3.72;;;23.40;88.30;;;;;;5019620;28;20053;-71